sensor_id;sensor_type;location;lat;lon;timestamp;pressure;altitude;pressure_sealevel;temperature;humidity
13553;BME280;6847;48.830;9.116;2022-12-07T00:01:05;97970.66;;;7.51;65.14
13553;BME280;6847;48.830;9.116;2022-12-07T00:03:38;97971.75;;;7.55;65.05
13553;BME280;6847;48.830;9.116;2022-12-07T00:06:06;97976.34;;;7.55;64.88
13553;BME280;6847;48.830;9.116;2022-12-07T00:08:34;97970.94;;;7.55;64.98
13553;BME280;6847;48.830;9.116;2022-12-07T00:11:02;97970.69;;;7.56;65.06
13553;BME280;6847;48.830;9.116;2022-12-07T00:13:30;97972.88;;;7.59;64.92
13553;BME280;6847;48.830;9.116;2022-12-07T00:16:00;97968.81;;;7.57;65.12
13553;BME280;6847;48.830;9.116;2022-12-07T00:18:28;97967.44;;;7.54;64.85
13553;BME280;6847;48.830;9.116;2022-12-07T00:21:00;97954.41;;;7.41;65.13
13553;BME280;6847;48.830;9.116;2022-12-07T00:23:30;97972.53;;;7.51;65.01
13553;BME280;6847;48.830;9.116;2022-12-07T00:26:03;97970.06;;;7.44;64.85
13553;BME280;6847;48.830;9.116;2022-12-07T00:28:30;97964.09;;;7.42;64.92
13553;BME280;6847;48.830;9.116;2022-12-07T00:31:03;97961.41;;;7.42;65.27
13553;BME280;6847;48.830;9.116;2022-12-07T00:33:31;97970.06;;;7.44;64.80
13553;BME280;6847;48.830;9.116;2022-12-07T00:36:05;97956.53;;;7.39;65.10
13553;BME280;6847;48.830;9.116;2022-12-07T00:38:37;97963.03;;;7.43;64.89
13553;BME280;6847;48.830;9.116;2022-12-07T00:41:06;97946.22;;;7.31;65.05
13553;BME280;6847;48.830;9.116;2022-12-07T00:43:33;97945.66;;;7.29;64.59
13553;BME280;6847;48.830;9.116;2022-12-07T00:46:00;97962.47;;;7.41;64.85
13553;BME280;6847;48.830;9.116;2022-12-07T00:48:30;97957.03;;;7.36;64.87
13553;BME280;6847;48.830;9.116;2022-12-07T00:50:57;97957.84;;;7.36;64.84
13553;BME280;6847;48.830;9.116;2022-12-07T00:53:26;97923.16;;;7.13;64.94
13553;BME280;6847;48.830;9.116;2022-12-07T00:56:04;97965.69;;;7.38;64.80
13553;BME280;6847;48.830;9.116;2022-12-07T00:58:32;97969.97;;;7.34;64.87
13553;BME280;6847;48.830;9.116;2022-12-07T01:01:01;97968.94;;;7.40;64.73
13553;BME280;6847;48.830;9.116;2022-12-07T01:03:28;97970.56;;;7.41;64.89
13553;BME280;6847;48.830;9.116;2022-12-07T01:05:56;97972.69;;;7.39;64.51
13553;BME280;6847;48.830;9.116;2022-12-07T01:08:27;97964.84;;;7.37;64.61
13553;BME280;6847;48.830;9.116;2022-12-07T01:10:59;97968.94;;;7.40;64.85
13553;BME280;6847;48.830;9.116;2022-12-07T01:13:30;97971.38;;;7.41;64.43
13553;BME280;6847;48.830;9.116;2022-12-07T01:15:59;97961.91;;;7.39;64.74
13553;BME280;6847;48.830;9.116;2022-12-07T01:18:31;97968.44;;;7.43;64.60
13553;BME280;6847;48.830;9.116;2022-12-07T01:21:01;97969.25;;;7.43;64.61
13553;BME280;6847;48.830;9.116;2022-12-07T01:23:40;97977.59;;;7.42;64.57
13553;BME280;6847;48.830;9.116;2022-12-07T01:26:11;97965.19;;;7.41;64.64
13553;BME280;6847;48.830;9.116;2022-12-07T01:28:40;97966.25;;;7.40;64.79
13553;BME280;6847;48.830;9.116;2022-12-07T01:31:09;97977.00;;;7.40;64.79
13553;BME280;6847;48.830;9.116;2022-12-07T01:33:39;97975.94;;;7.41;64.28
13553;BME280;6847;48.830;9.116;2022-12-07T01:36:08;97975.94;;;7.41;64.76
13553;BME280;6847;48.830;9.116;2022-12-07T01:38:37;97978.09;;;7.39;64.57
13553;BME280;6847;48.830;9.116;2022-12-07T01:41:05;97972.69;;;7.39;64.89
13553;BME280;6847;48.830;9.116;2022-12-07T01:44:12;97977.59;;;7.42;64.66
13553;BME280;6847;48.830;9.116;2022-12-07T01:46:41;97967.00;;;7.35;64.68
13553;BME280;6847;48.830;9.116;2022-12-07T01:49:15;97985.09;;;7.40;64.71
13553;BME280;6847;48.830;9.116;2022-12-07T01:54:31;97978.09;;;7.39;64.98
13553;BME280;6847;48.830;9.116;2022-12-07T01:57:01;97981.03;;;7.37;64.51
13553;BME280;6847;48.830;9.116;2022-12-07T01:59:46;97977.50;;;7.37;64.70
13553;BME280;6847;48.830;9.116;2022-12-07T02:02:19;97982.34;;;7.35;64.69
13553;BME280;6847;48.830;9.116;2022-12-07T02:05:07;97974.22;;;7.30;65.07
13553;BME280;6847;48.830;9.116;2022-12-07T02:07:36;97980.09;;;7.27;64.67
13553;BME280;6847;48.830;9.116;2022-12-07T02:10:25;97976.84;;;7.25;64.84
13553;BME280;6847;48.830;9.116;2022-12-07T02:13:02;97981.13;;;7.21;64.65
13553;BME280;6847;48.830;9.116;2022-12-07T02:15:44;97981.06;;;7.16;64.88
13553;BME280;6847;48.830;9.116;2022-12-07T02:18:18;97973.78;;;7.16;64.95
13553;BME280;6847;48.830;9.116;2022-12-07T02:20:53;97975.66;;;7.16;65.11
13553;BME280;6847;48.830;9.116;2022-12-07T02:23:57;97973.50;;;7.13;64.94
13553;BME280;6847;48.830;9.116;2022-12-07T02:26:55;97974.00;;;7.10;64.98
13553;BME280;6847;48.830;9.116;2022-12-07T02:29:33;97953.97;;;7.00;64.65
13553;BME280;6847;48.830;9.116;2022-12-07T02:32:07;97966.19;;;7.08;64.69
13553;BME280;6847;48.830;9.116;2022-12-07T02:34:43;97968.06;;;7.07;64.72
13553;BME280;6847;48.830;9.116;2022-12-07T02:37:21;97959.16;;;7.07;64.80
13553;BME280;6847;48.830;9.116;2022-12-07T02:39:55;97956.72;;;7.05;65.18
13553;BME280;6847;48.830;9.116;2022-12-07T02:42:29;97950.84;;;7.09;65.05
13553;BME280;6847;48.830;9.116;2022-12-07T02:45:01;97950.03;;;7.08;64.74
13553;BME280;6847;48.830;9.116;2022-12-07T02:47:32;97948.38;;;7.07;64.57
13553;BME280;6847;48.830;9.116;2022-12-07T02:50:03;97950.56;;;7.05;65.03
13553;BME280;6847;48.830;9.116;2022-12-07T02:52:34;97950.22;;;7.01;64.57
13553;BME280;6847;48.830;9.116;2022-12-07T02:55:03;97938.53;;;6.91;65.12
13553;BME280;6847;48.830;9.116;2022-12-07T02:57:58;97943.72;;;6.97;64.93
13553;BME280;6847;48.830;9.116;2022-12-07T03:00:35;97939.97;;;6.98;65.33
13553;BME280;6847;48.830;9.116;2022-12-07T03:03:10;97901.25;;;6.78;65.07
13553;BME280;6847;48.830;9.116;2022-12-07T03:08:33;97939.47;;;7.01;65.03
13553;BME280;6847;48.830;9.116;2022-12-07T03:11:04;97939.97;;;6.98;64.94
13553;BME280;6847;48.830;9.116;2022-12-07T03:13:37;97937.84;;;7.00;64.75
13553;BME280;6847;48.830;9.116;2022-12-07T03:16:11;97929.75;;;7.00;65.00
13553;BME280;6847;48.830;9.116;2022-12-07T03:18:44;97929.19;;;6.98;64.97
13553;BME280;6847;48.830;9.116;2022-12-07T03:21:16;97921.56;;;6.90;64.73
13553;BME280;6847;48.830;9.116;2022-12-07T03:23:48;97935.38;;;6.99;65.09
13553;BME280;6847;48.830;9.116;2022-12-07T03:26:31;97934.28;;;6.95;65.20
13553;BME280;6847;48.830;9.116;2022-12-07T03:29:05;97925.66;;;6.93;64.74
13553;BME280;6847;48.830;9.116;2022-12-07T03:31:41;97926.97;;;6.90;65.22
13553;BME280;6847;48.830;9.116;2022-12-07T03:34:21;97923.69;;;6.88;65.15
13553;BME280;6847;48.830;9.116;2022-12-07T03:36:53;97921.22;;;6.82;64.81
13553;BME280;6847;48.830;9.116;2022-12-07T03:39:26;97916.94;;;6.86;65.40
13553;BME280;6847;48.830;9.116;2022-12-07T03:41:58;97923.66;;;6.83;65.26
13553;BME280;6847;48.830;9.116;2022-12-07T03:44:26;97923.09;;;6.81;65.10
13553;BME280;6847;48.830;9.116;2022-12-07T03:47:01;97896.28;;;6.64;65.32
13553;BME280;6847;48.830;9.116;2022-12-07T03:49:36;97918.16;;;6.73;65.32
13553;BME280;6847;48.830;9.116;2022-12-07T03:52:12;97918.66;;;6.70;65.54
13553;BME280;6847;48.830;9.116;2022-12-07T03:54:51;97892.28;;;6.45;65.16
13553;BME280;6847;48.830;9.116;2022-12-07T03:57:22;97914.78;;;6.61;65.48
13553;BME280;6847;48.830;9.116;2022-12-07T03:59:55;97869.25;;;6.32;65.25
13553;BME280;6847;48.830;9.116;2022-12-07T04:02:26;97877.31;;;6.32;64.98
13553;BME280;6847;48.830;9.116;2022-12-07T04:04:54;97904.97;;;6.50;65.53
13553;BME280;6847;48.830;9.116;2022-12-07T04:07:21;97908.72;;;6.49;65.45
13553;BME280;6847;48.830;9.116;2022-12-07T04:09:50;97907.09;;;6.48;65.43
13553;BME280;6847;48.830;9.116;2022-12-07T04:12:20;97912.47;;;6.48;65.76
13553;BME280;6847;48.830;9.116;2022-12-07T04:14:47;97904.97;;;6.50;65.51
13553;BME280;6847;48.830;9.116;2022-12-07T04:17:16;97887.88;;;6.39;65.13
13553;BME280;6847;48.830;9.116;2022-12-07T04:19:47;97894.19;;;6.50;65.07
13553;BME280;6847;48.830;9.116;2022-12-07T04:22:17;97885.03;;;6.46;65.73
13553;BME280;6847;48.830;9.116;2022-12-07T04:24:45;97877.44;;;6.43;65.36
13553;BME280;6847;48.830;9.116;2022-12-07T04:27:14;97879.31;;;6.42;65.25
13553;BME280;6847;48.830;9.116;2022-12-07T04:29:40;97879.56;;;6.41;65.15
13553;BME280;6847;48.830;9.116;2022-12-07T04:32:07;97785.09;;;5.88;65.36
13553;BME280;6847;48.830;9.116;2022-12-07T04:34:36;97877.44;;;6.43;65.28
13553;BME280;6847;48.830;9.116;2022-12-07T04:37:05;97870.78;;;6.45;65.44
13553;BME280;6847;48.830;9.116;2022-12-07T04:39:33;97875.63;;;6.48;65.36
13553;BME280;6847;48.830;9.116;2022-12-07T04:42:00;97859.00;;;6.51;65.12
13553;BME280;6847;48.830;9.116;2022-12-07T04:44:30;97860.38;;;6.54;65.10
13553;BME280;6847;48.830;9.116;2022-12-07T04:46:57;97861.47;;;6.58;64.97
13553;BME280;6847;48.830;9.116;2022-12-07T04:49:24;97823.34;;;6.39;65.01
13553;BME280;6847;48.830;9.116;2022-12-07T04:51:51;97864.25;;;6.63;65.19
13553;BME280;6847;48.830;9.116;2022-12-07T04:54:20;97873.41;;;6.67;65.05
13553;BME280;6847;48.830;9.116;2022-12-07T04:56:47;97874.53;;;6.71;64.87
13553;BME280;6847;48.830;9.116;2022-12-07T04:59:17;97873.00;;;6.75;64.98
13553;BME280;6847;48.830;9.116;2022-12-07T05:01:44;97875.16;;;6.78;64.35
13553;BME280;6847;48.830;9.116;2022-12-07T05:04:13;97868.41;;;6.76;64.94
13553;BME280;6847;48.830;9.116;2022-12-07T05:10:01;97881.16;;;6.85;64.61
13553;BME280;6847;48.830;9.116;2022-12-07T05:12:28;97868.66;;;6.74;64.45
13553;BME280;6847;48.830;9.116;2022-12-07T05:14:58;97884.34;;;6.82;64.32
13553;BME280;6847;48.830;9.116;2022-12-07T05:17:24;97897.34;;;6.90;64.49
13553;BME280;6847;48.830;9.116;2022-12-07T05:19:51;97902.16;;;6.88;64.46
13553;BME280;6847;48.830;9.116;2022-12-07T05:22:22;97902.94;;;6.84;64.70
13553;BME280;6847;48.830;9.116;2022-12-07T05:24:53;97899.38;;;6.78;64.50
13553;BME280;6847;48.830;9.116;2022-12-07T05:27:23;97903.06;;;6.72;64.42
13553;BME280;6847;48.830;9.116;2022-12-07T05:29:52;97897.09;;;6.65;64.54
13553;BME280;6847;48.830;9.116;2022-12-07T05:32:19;97898.88;;;6.59;64.71
13553;BME280;6847;48.830;9.116;2022-12-07T05:34:48;97894.53;;;6.53;65.10
13553;BME280;6847;48.830;9.116;2022-12-07T05:37:18;97699.03;;;5.18;64.86
13553;BME280;6847;48.830;9.116;2022-12-07T05:39:47;97898.88;;;6.38;64.89
13553;BME280;6847;48.830;9.116;2022-12-07T05:42:27;97886.31;;;6.21;64.36
13553;BME280;6847;48.830;9.116;2022-12-07T05:45:09;97906.81;;;6.27;64.69
13553;BME280;6847;48.830;9.116;2022-12-07T05:47:36;97844.72;;;5.85;64.67
13553;BME280;6847;48.830;9.116;2022-12-07T05:50:06;97887.25;;;6.10;64.52
13553;BME280;6847;48.830;9.116;2022-12-07T05:52:34;97890.94;;;6.04;64.52
13553;BME280;6847;48.830;9.116;2022-12-07T05:55:07;97902.31;;;6.11;64.74
13553;BME280;6847;48.830;9.116;2022-12-07T05:57:38;97906.06;;;6.10;64.45
13553;BME280;6847;48.830;9.116;2022-12-07T06:00:06;97896.94;;;6.11;64.35
13553;BME280;6847;48.830;9.116;2022-12-07T06:02:33;97898.56;;;6.12;64.52
13553;BME280;6847;48.830;9.116;2022-12-07T06:05:09;97902.31;;;6.11;64.65
13553;BME280;6847;48.830;9.116;2022-12-07T06:07:40;97786.28;;;5.37;64.39
13553;BME280;6847;48.830;9.116;2022-12-07T06:10:11;97844.22;;;5.72;64.23
13553;BME280;6847;48.830;9.116;2022-12-07T06:12:41;97908.84;;;6.15;64.00
13553;BME280;6847;48.830;9.116;2022-12-07T06:15:10;97856.25;;;5.86;64.31
13553;BME280;6847;48.830;9.116;2022-12-07T06:17:40;97912.72;;;6.24;63.89
13553;BME280;6847;48.830;9.116;2022-12-07T06:20:10;97857.72;;;5.93;64.36
13553;BME280;6847;48.830;9.116;2022-12-07T06:22:41;97917.53;;;6.22;64.50
13553;BME280;6847;48.830;9.116;2022-12-07T06:25:15;97908.31;;;6.18;64.37
13553;BME280;6847;48.830;9.116;2022-12-07T06:27:45;97744.00;;;5.11;64.10
13553;BME280;6847;48.830;9.116;2022-12-07T06:30:11;97892.56;;;6.05;64.17
13553;BME280;6847;48.830;9.116;2022-12-07T06:32:38;97903.47;;;6.15;64.37
13553;BME280;6847;48.830;9.116;2022-12-07T06:35:05;97907.78;;;6.16;64.10
13553;BME280;6847;48.830;9.116;2022-12-07T06:37:32;97907.81;;;6.21;64.32
13553;BME280;6847;48.830;9.116;2022-12-07T06:40:02;97897.41;;;6.25;63.81
13553;BME280;6847;48.830;9.116;2022-12-07T06:42:29;97841.19;;;5.85;64.06
13553;BME280;6847;48.830;9.116;2022-12-07T06:44:57;97905.22;;;6.26;64.18
13553;BME280;6847;48.830;9.116;2022-12-07T06:47:33;97910.09;;;6.29;64.17
13553;BME280;6847;48.830;9.116;2022-12-07T06:50:03;97909.03;;;6.30;64.01
13553;BME280;6847;48.830;9.116;2022-12-07T06:52:31;97881.94;;;6.15;64.14
13553;BME280;6847;48.830;9.116;2022-12-07T06:55:03;97896.59;;;6.24;64.07
13553;BME280;6847;48.830;9.116;2022-12-07T06:57:34;97874.44;;;6.17;64.01
13553;BME280;6847;48.830;9.116;2022-12-07T07:00:06;97916.41;;;6.40;64.11
13553;BME280;6847;48.830;9.116;2022-12-07T07:02:35;97916.16;;;6.42;63.68
13553;BME280;6847;48.830;9.116;2022-12-07T07:05:02;97914.78;;;6.39;63.91
13553;BME280;6847;48.830;9.116;2022-12-07T07:07:29;97897.41;;;6.25;63.83
13553;BME280;6847;48.830;9.116;2022-12-07T07:09:57;97861.94;;;6.06;63.79
13553;BME280;6847;48.830;9.116;2022-12-07T07:12:31;97915.59;;;6.40;63.96
13553;BME280;6847;48.830;9.116;2022-12-07T07:14:59;97850.53;;;5.99;63.54
13553;BME280;6847;48.830;9.116;2022-12-07T07:17:28;97922.72;;;6.51;64.14
13553;BME280;6847;48.830;9.116;2022-12-07T07:19:56;97914.28;;;6.42;64.15
13553;BME280;6847;48.830;9.116;2022-12-07T07:22:23;97932.09;;;6.48;63.92
13553;BME280;6847;48.830;9.116;2022-12-07T07:24:51;97932.34;;;6.47;64.08
13553;BME280;6847;48.830;9.116;2022-12-07T07:27:23;97931.28;;;6.48;63.83
13553;BME280;6847;48.830;9.116;2022-12-07T07:29:51;97926.97;;;6.47;63.83
13553;BME280;6847;48.830;9.116;2022-12-07T07:32:18;97909.09;;;6.36;63.87
13553;BME280;6847;48.830;9.116;2022-12-07T07:34:49;97931.84;;;6.50;63.87
13553;BME280;6847;48.830;9.116;2022-12-07T07:37:16;97880.94;;;6.21;64.28
13553;BME280;6847;48.830;9.116;2022-12-07T07:39:43;97929.16;;;6.50;63.84
13553;BME280;6847;48.830;9.116;2022-12-07T07:42:11;97936.75;;;6.53;64.24
13553;BME280;6847;48.830;9.116;2022-12-07T07:44:39;97933.00;;;6.54;64.14
13553;BME280;6847;48.830;9.116;2022-12-07T07:50:58;97940.00;;;6.55;63.88
13553;BME280;6847;48.830;9.116;2022-12-07T07:53:25;97935.16;;;6.57;63.74
13553;BME280;6847;48.830;9.116;2022-12-07T07:55:52;97871.19;;;6.15;63.54
13553;BME280;6847;48.830;9.116;2022-12-07T07:58:24;97888.09;;;6.32;63.94
13553;BME280;6847;48.830;9.116;2022-12-07T08:00:53;97945.00;;;6.68;64.02
13553;BME280;6847;48.830;9.116;2022-12-07T08:03:20;97885.72;;;6.36;63.39
13553;BME280;6847;48.830;9.116;2022-12-07T08:05:48;97916.66;;;6.60;63.47
13553;BME280;6847;48.830;9.116;2022-12-07T08:08:21;97855.19;;;6.25;63.43
13553;BME280;6847;48.830;9.116;2022-12-07T08:10:48;97930.31;;;6.76;63.71
13553;BME280;6847;48.830;9.116;2022-12-07T08:13:16;97950.16;;;6.96;63.56
13553;BME280;6847;48.830;9.116;2022-12-07T08:15:46;97892.25;;;6.67;63.53
13553;BME280;6847;48.830;9.116;2022-12-07T08:18:17;97940.56;;;7.05;63.35
13553;BME280;6847;48.830;9.116;2022-12-07T08:21:01;97943.31;;;7.11;63.54
13553;BME280;6847;48.830;9.116;2022-12-07T08:23:32;97813.03;;;6.31;63.24
13553;BME280;6847;48.830;9.116;2022-12-07T08:26:02;97943.44;;;7.21;63.25
13553;BME280;6847;48.830;9.116;2022-12-07T08:28:28;97943.75;;;7.24;63.16
13553;BME280;6847;48.830;9.116;2022-12-07T08:31:08;97951.03;;;7.29;63.04
13553;BME280;6847;48.830;9.116;2022-12-07T08:33:36;97942.41;;;7.27;62.96
13553;BME280;6847;48.830;9.116;2022-12-07T08:36:07;97958.47;;;7.43;62.76
13553;BME280;6847;48.830;9.116;2022-12-07T08:38:35;97962.81;;;7.50;63.00
13553;BME280;6847;48.830;9.116;2022-12-07T08:41:04;97893.81;;;7.12;62.46
13553;BME280;6847;48.830;9.116;2022-12-07T08:43:33;97962.66;;;7.61;63.14
13553;BME280;6847;48.830;9.116;2022-12-07T08:46:09;97940.47;;;7.49;62.82
13553;BME280;6847;48.830;9.116;2022-12-07T08:48:43;97947.06;;;7.63;62.64
13553;BME280;6847;48.830;9.116;2022-12-07T08:51:14;97959.25;;;7.71;62.51
13553;BME280;6847;48.830;9.116;2022-12-07T08:53:43;97963.34;;;7.78;62.75
13553;BME280;6847;48.830;9.116;2022-12-07T08:56:11;97959.63;;;7.85;62.54
13553;BME280;6847;48.830;9.116;2022-12-07T08:58:38;97957.56;;;7.97;62.86
13553;BME280;6847;48.830;9.116;2022-12-07T09:01:10;97946.25;;;8.00;62.31
13553;BME280;6847;48.830;9.116;2022-12-07T09:03:37;97869.47;;;7.65;62.22
13553;BME280;6847;48.830;9.116;2022-12-07T09:06:04;97954.50;;;8.25;62.29
13553;BME280;6847;48.830;9.116;2022-12-07T09:08:36;97922.63;;;8.12;62.14
13553;BME280;6847;48.830;9.116;2022-12-07T09:11:06;97964.38;;;8.41;61.95
13553;BME280;6847;48.830;9.116;2022-12-07T09:13:41;97920.50;;;8.19;62.26
13553;BME280;6847;48.830;9.116;2022-12-07T09:16:07;97920.25;;;8.21;61.66
13553;BME280;6847;48.830;9.116;2022-12-07T09:18:34;97963.34;;;8.58;62.17
13553;BME280;6847;48.830;9.116;2022-12-07T09:21:01;97956.34;;;8.57;61.94
13553;BME280;6847;48.830;9.116;2022-12-07T09:23:27;97961.22;;;8.65;62.47
13553;BME280;6847;48.830;9.116;2022-12-07T09:25:59;97956.38;;;8.72;61.88
13553;BME280;6847;48.830;9.116;2022-12-07T09:28:29;97893.13;;;8.42;61.86
13553;BME280;6847;48.830;9.116;2022-12-07T09:31:06;97958.09;;;8.88;61.72
13553;BME280;6847;48.830;9.116;2022-12-07T09:33:32;97957.59;;;8.96;61.56
13553;BME280;6847;48.830;9.116;2022-12-07T09:36:03;97955.44;;;8.98;62.07
13553;BME280;6847;48.830;9.116;2022-12-07T09:38:31;97961.91;;;8.97;61.58
13553;BME280;6847;48.830;9.116;2022-12-07T09:41:04;97957.84;;;8.95;62.06
13553;BME280;6847;48.830;9.116;2022-12-07T09:43:40;97927.50;;;8.72;61.63
13553;BME280;6847;48.830;9.116;2022-12-07T09:46:09;97965.69;;;8.96;62.12
13553;BME280;6847;48.830;9.116;2022-12-07T09:48:44;97924.56;;;8.74;61.96
13553;BME280;6847;48.830;9.116;2022-12-07T09:51:15;97925.66;;;8.78;61.44
13553;BME280;6847;48.830;9.116;2022-12-07T09:53:47;97953.81;;;9.02;61.66
13553;BME280;6847;48.830;9.116;2022-12-07T09:56:16;97944.66;;;9.13;61.98
13553;BME280;6847;48.830;9.116;2022-12-07T09:58:49;97944.69;;;9.18;61.17
13553;BME280;6847;48.830;9.116;2022-12-07T10:01:18;97891.69;;;8.87;61.05
13553;BME280;6847;48.830;9.116;2022-12-07T10:03:52;97898.69;;;8.93;61.76
13553;BME280;6847;48.830;9.116;2022-12-07T10:06:19;97822.22;;;8.62;60.91
13553;BME280;6847;48.830;9.116;2022-12-07T10:08:46;97932.84;;;9.45;61.18
13553;BME280;6847;48.830;9.116;2022-12-07T10:11:14;97923.13;;;9.64;61.65
13553;BME280;6847;48.830;9.116;2022-12-07T10:13:46;97923.38;;;9.83;61.51
13553;BME280;6847;48.830;9.116;2022-12-07T10:16:32;97924.44;;;9.92;60.76
13553;BME280;6847;48.830;9.116;2022-12-07T10:19:18;97877.16;;;9.64;61.16
13553;BME280;6847;48.830;9.116;2022-12-07T10:22:03;97915.53;;;9.96;61.51
13553;BME280;6847;48.830;9.116;2022-12-07T10:24:32;97918.22;;;10.01;61.14
13553;BME280;6847;48.830;9.116;2022-12-07T10:27:00;97918.78;;;10.09;60.33
13553;BME280;6847;48.830;9.116;2022-12-07T10:29:31;97910.66;;;10.03;60.45
13553;BME280;6847;48.830;9.116;2022-12-07T10:32:01;97858.78;;;9.61;61.44
13553;BME280;6847;48.830;9.116;2022-12-07T10:34:34;97913.66;;;9.82;61.23
13553;BME280;6847;48.830;9.116;2022-12-07T10:37:21;97916.91;;;9.69;61.56
13553;BME280;6847;48.830;9.116;2022-12-07T10:39:57;97906.63;;;9.50;61.84
13553;BME280;6847;48.830;9.116;2022-12-07T10:42:29;97903.13;;;9.40;61.93
13553;BME280;6847;48.830;9.116;2022-12-07T10:45:12;97904.72;;;9.36;61.48
13553;BME280;6847;48.830;9.116;2022-12-07T10:47:45;97854.44;;;8.94;61.41
13553;BME280;6847;48.830;9.116;2022-12-07T10:50:26;97904.16;;;9.18;61.96
13553;BME280;6847;48.830;9.116;2022-12-07T10:56:04;97834.38;;;8.60;62.28
13553;BME280;6847;48.830;9.116;2022-12-07T10:58:52;97856.78;;;8.65;61.54
13553;BME280;6847;48.830;9.116;2022-12-07T11:01:29;97893.84;;;8.95;61.89
13553;BME280;6847;48.830;9.116;2022-12-07T11:04:18;97890.63;;;9.03;61.55
13553;BME280;6847;48.830;9.116;2022-12-07T11:06:59;97855.78;;;8.86;61.36
13553;BME280;6847;48.830;9.116;2022-12-07T11:09:54;97855.50;;;8.88;61.21
13553;BME280;6847;48.830;9.116;2022-12-07T11:13:16;97777.13;;;8.42;61.67
13553;BME280;6847;48.830;9.116;2022-12-07T11:16:11;97883.63;;;9.12;61.26
13553;BME280;6847;48.830;9.116;2022-12-07T11:18:52;97867.94;;;8.94;61.31
13553;BME280;6847;48.830;9.116;2022-12-07T11:21:31;97874.97;;;9.00;61.79
13553;BME280;6847;48.830;9.116;2022-12-07T11:24:12;97861.44;;;8.95;61.33
13553;BME280;6847;48.830;9.116;2022-12-07T11:26:51;97868.50;;;9.06;61.60
13553;BME280;6847;48.830;9.116;2022-12-07T11:29:38;97870.91;;;9.13;61.46
13553;BME280;6847;48.830;9.116;2022-12-07T11:32:17;97856.88;;;9.06;61.47
13553;BME280;6847;48.830;9.116;2022-12-07T11:35:01;97833.91;;;8.93;61.01
13553;BME280;6847;48.830;9.116;2022-12-07T11:37:34;97858.78;;;9.00;61.88
13553;BME280;6847;48.830;9.116;2022-12-07T11:40:13;97813.88;;;8.74;61.86
13553;BME280;6847;48.830;9.116;2022-12-07T11:42:46;97864.16;;;9.05;61.57
13553;BME280;6847;48.830;9.116;2022-12-07T11:45:20;97859.28;;;9.02;61.45
13553;BME280;6847;48.830;9.116;2022-12-07T11:47:54;97870.38;;;9.01;61.57
13553;BME280;6847;48.830;9.116;2022-12-07T11:50:38;97853.34;;;8.90;61.42
13553;BME280;6847;48.830;9.116;2022-12-07T11:53:14;97794.44;;;8.57;62.04
13553;BME280;6847;48.830;9.116;2022-12-07T11:55:45;97860.63;;;8.95;61.71
13553;BME280;6847;48.830;9.116;2022-12-07T11:58:27;97826.84;;;8.72;61.65
13553;BME280;6847;48.830;9.116;2022-12-07T12:01:14;97858.19;;;8.88;61.82
13553;BME280;6847;48.830;9.116;2022-12-07T12:03:49;97834.41;;;8.75;61.78
13553;BME280;6847;48.830;9.116;2022-12-07T12:06:38;97826.88;;;8.77;61.49
13553;BME280;6847;48.830;9.116;2022-12-07T12:09:11;97845.25;;;8.95;61.30
13553;BME280;6847;48.830;9.116;2022-12-07T12:11:50;97848.47;;;8.92;61.50
13553;BME280;6847;48.830;9.116;2022-12-07T12:14:39;97838.22;;;8.84;61.48
13553;BME280;6847;48.830;9.116;2022-12-07T12:17:28;97823.06;;;8.68;61.41
13553;BME280;6847;48.830;9.116;2022-12-07T12:20:19;97841.44;;;8.76;61.80
13553;BME280;6847;48.830;9.116;2022-12-07T12:22:53;97822.78;;;8.64;61.08
13553;BME280;6847;48.830;9.116;2022-12-07T12:25:25;97836.03;;;8.76;61.34
13553;BME280;6847;48.830;9.116;2022-12-07T12:27:55;97833.38;;;8.81;61.66
13553;BME280;6847;48.830;9.116;2022-12-07T12:30:29;97840.94;;;8.89;61.19
13553;BME280;6847;48.830;9.116;2022-12-07T12:33:03;97805.28;;;8.77;61.70
13553;BME280;6847;48.830;9.116;2022-12-07T12:35:33;97837.69;;;8.97;61.25
13553;BME280;6847;48.830;9.116;2022-12-07T12:38:29;97836.09;;;9.06;61.12
13553;BME280;6847;48.830;9.116;2022-12-07T12:41:01;97832.84;;;9.04;61.23
13553;BME280;6847;48.830;9.116;2022-12-07T12:43:55;97780.69;;;8.68;61.52
13553;BME280;6847;48.830;9.116;2022-12-07T12:46:46;97833.09;;;8.93;61.58
13553;BME280;6847;48.830;9.116;2022-12-07T12:49:40;97717.72;;;8.22;61.66
13553;BME280;6847;48.830;9.116;2022-12-07T12:59:18;97821.50;;;8.97;61.64
13553;BME280;6847;48.830;9.116;2022-12-07T13:01:54;97819.88;;;8.96;61.22
13553;BME280;6847;48.830;9.116;2022-12-07T13:04:28;97813.94;;;8.99;61.18
13553;BME280;6847;48.830;9.116;2022-12-07T13:06:58;97807.44;;;8.95;61.35
13553;BME280;6847;48.830;9.116;2022-12-07T13:09:27;97510.44;;;7.02;61.22
13553;BME280;6847;48.830;9.116;2022-12-07T13:12:01;97802.56;;;8.92;61.42
13553;BME280;6847;48.830;9.116;2022-12-07T13:14:42;97804.19;;;8.93;61.18
13553;BME280;6847;48.830;9.116;2022-12-07T13:18:00;97794.47;;;8.92;61.24
13553;BME280;6847;48.830;9.116;2022-12-07T13:20:43;97795.59;;;8.91;61.08
13553;BME280;6847;48.830;9.116;2022-12-07T13:23:12;97790.72;;;8.88;61.14
13553;BME280;6847;48.830;9.116;2022-12-07T13:25:46;97754.75;;;8.62;61.38
13553;BME280;6847;48.830;9.116;2022-12-07T13:28:21;97793.38;;;8.83;61.17
13553;BME280;6847;48.830;9.116;2022-12-07T13:31:12;97783.69;;;8.77;61.16
13553;BME280;6847;48.830;9.116;2022-12-07T13:33:43;97739.34;;;8.32;61.63
13553;BME280;6847;48.830;9.116;2022-12-07T13:36:20;97790.69;;;8.68;61.38
13553;BME280;6847;48.830;9.116;2022-12-07T13:38:51;97786.63;;;8.65;61.47
13553;BME280;6847;48.830;9.116;2022-12-07T13:41:20;97760.97;;;8.58;61.58
13553;BME280;6847;48.830;9.116;2022-12-07T13:44:07;97785.31;;;8.78;61.31
13553;BME280;6847;48.830;9.116;2022-12-07T13:46:44;97790.44;;;8.84;61.28
13553;BME280;6847;48.830;9.116;2022-12-07T13:49:18;97777.22;;;8.88;60.97
13553;BME280;6847;48.830;9.116;2022-12-07T13:51:47;97733.97;;;8.63;60.95
13553;BME280;6847;48.830;9.116;2022-12-07T13:54:15;97756.16;;;8.80;60.79
13553;BME280;6847;48.830;9.116;2022-12-07T13:56:42;97782.34;;;9.05;60.91
13553;BME280;6847;48.830;9.116;2022-12-07T13:59:16;97782.06;;;9.06;61.20
13553;BME280;6847;48.830;9.116;2022-12-07T14:01:45;97769.13;;;8.98;61.30
13553;BME280;6847;48.830;9.116;2022-12-07T14:04:30;97787.19;;;9.13;61.02
13553;BME280;6847;48.830;9.116;2022-12-07T14:07:00;97731.31;;;8.88;61.32
13553;BME280;6847;48.830;9.116;2022-12-07T14:09:29;97749.13;;;9.04;61.66
13553;BME280;6847;48.830;9.116;2022-12-07T14:11:57;97790.16;;;9.42;60.98
13553;BME280;6847;48.830;9.116;2022-12-07T14:14:32;97742.63;;;9.25;61.16
13553;BME280;6847;48.830;9.116;2022-12-07T14:17:11;97769.59;;;9.56;60.63